createdAt,value
2023-01-30T00:04:04.329Z,10.25
2023-01-30T00:09:07.071Z,6.60
2023-01-30T00:14:11.125Z,5.67
2023-01-30T00:19:13.809Z,8.88
2023-01-30T00:24:16.584Z,4.57
2023-01-30T00:29:20.704Z,3.37
2023-01-30T00:34:23.327Z,8.05
2023-01-30T00:39:26.005Z,6.97
2023-01-30T00:44:47.429Z,6.50
2023-01-30T00:49:50.076Z,9.10
2023-01-30T00:54:52.696Z,3.80
2023-01-30T00:59:57.449Z,5.67
2023-01-30T01:05:00.043Z,9.07
2023-01-30T01:10:02.882Z,3.63
2023-01-30T01:15:07.708Z,5.27
2023-01-30T01:20:11.020Z,7.33
2023-01-30T01:25:13.943Z,8.87
2023-01-30T01:30:18.706Z,3.97
2023-01-30T01:35:22.081Z,4.23
2023-01-30T01:40:42.900Z,9.50
2023-01-30T01:45:49.775Z,7.23
2023-01-30T01:50:54.618Z,5.13
2023-01-30T01:55:59.725Z,9.73
2023-01-30T02:01:03.806Z,1.20
2023-01-30T02:06:07.013Z,10.18
2023-01-30T02:11:11.229Z,5.43
2023-01-30T02:21:37.358Z,4.27
2023-01-30T02:26:55.770Z,6.37
2023-01-30T02:32:06.581Z,5.00
2023-01-30T02:37:16.627Z,9.27
2023-01-30T02:42:22.142Z,6.13
2023-01-30T02:47:28.878Z,6.27
2023-01-30T02:52:32.129Z,6.93
2023-01-30T02:57:34.720Z,5.63
2023-01-30T03:02:52.376Z,11.13
2023-01-30T03:08:04.753Z,4.37
2023-01-30T03:13:11.166Z,5.93
2023-01-30T03:18:14.069Z,10.70
2023-01-30T03:23:18.054Z,7.47
2023-01-30T03:28:22.092Z,7.57
2023-01-30T03:33:24.795Z,10.70
2023-01-30T03:38:28.766Z,12.77
2023-01-30T03:43:31.430Z,9.25
2023-01-30T03:48:33.953Z,12.70
2023-01-30T03:53:37.913Z,6.80
2023-01-30T03:58:40.493Z,12.27
2023-01-30T04:03:43.134Z,8.60
2023-01-30T04:08:47.017Z,8.20
2023-01-30T04:13:49.619Z,8.40
2023-01-30T04:18:52.314Z,8.90
2023-01-30T04:23:56.356Z,7.10
2023-01-30T04:28:58.996Z,9.85
2023-01-30T04:34:02.052Z,10.17
2023-01-30T04:39:06.120Z,10.80
2023-01-30T04:44:08.839Z,9.85
2023-01-30T04:49:11.593Z,8.07
2023-01-30T04:54:15.682Z,12.13
2023-01-30T04:59:18.333Z,7.20
2023-01-30T05:04:22.098Z,8.87
2023-01-30T05:09:26.182Z,9.23
2023-01-30T05:14:28.904Z,7.45
2023-01-30T05:19:31.717Z,9.50
2023-01-30T05:24:36.961Z,6.80
2023-01-30T05:29:39.677Z,11.27
2023-01-30T05:34:42.395Z,9.47
2023-01-30T05:39:46.418Z,5.53
2023-01-30T05:49:52.665Z,11.60
2023-01-30T05:54:56.778Z,10.27
2023-01-30T06:05:01.853Z,14.17
2023-01-30T06:10:06.099Z,8.83
2023-01-30T06:15:09.970Z,6.17
2023-01-30T06:20:13.050Z,4.85
2023-01-30T06:25:17.761Z,6.67
2023-01-30T06:30:20.813Z,7.57
2023-01-30T06:35:23.488Z,4.33
2023-01-30T06:40:27.682Z,10.17
2023-01-30T06:50:32.955Z,10.70
2023-01-30T06:55:37.122Z,6.37
2023-01-30T07:00:40.589Z,8.77
2023-01-30T07:10:47.909Z,7.63
2023-01-30T07:15:50.557Z,9.05
2023-01-30T07:20:53.083Z,10.90
2023-01-30T07:25:57.002Z,6.53
2023-01-30T07:31:00.495Z,5.60
2023-01-30T07:36:03.162Z,7.53
2023-01-30T07:41:07.145Z,6.43
2023-01-30T07:46:09.895Z,5.50
2023-01-30T07:51:12.466Z,7.90
2023-01-30T07:56:22.889Z,7.23
2023-01-30T08:01:25.634Z,6.83
2023-01-30T08:06:28.227Z,7.90
2023-01-30T08:11:32.276Z,8.20
2023-01-30T08:16:36.971Z,7.88
2023-01-30T08:21:40.650Z,8.77
2023-01-30T08:26:48.690Z,5.97
2023-01-30T08:31:51.378Z,7.95
2023-01-30T08:36:53.982Z,6.20
2023-01-30T08:41:58.179Z,6.93
2023-01-30T08:52:03.143Z,7.45
2023-01-30T08:57:52.297Z,5.78
2023-01-30T09:03:00.464Z,6.85
2023-01-30T09:08:03.695Z,8.13
2023-01-30T09:13:06.401Z,7.07
2023-01-30T09:18:10.322Z,6.63
2023-01-30T09:23:12.943Z,8.70
2023-01-30T09:28:15.499Z,7.85
2023-01-30T09:33:20.358Z,5.65
2023-01-30T09:38:22.918Z,7.82
2023-01-30T09:43:30.002Z,6.60
2023-01-30T09:48:37.536Z,6.18
2023-01-30T09:53:49.459Z,4.85
2023-01-30T09:58:53.247Z,6.32
2023-01-30T10:04:02.633Z,6.05
2023-01-30T10:09:09.959Z,6.30
2023-01-30T10:14:21.916Z,5.70
2023-01-30T10:19:36.585Z,6.57
2023-01-30T10:24:46.625Z,5.68
2023-01-30T10:29:52.960Z,6.70
2023-01-30T10:34:58.852Z,5.97
2023-01-30T10:40:05.379Z,7.30
2023-01-30T10:45:12.085Z,4.68
2023-01-30T10:50:18.698Z,4.72
2023-01-30T10:55:37.088Z,5.25
2023-01-30T11:00:42.005Z,3.80
2023-01-30T11:05:49.882Z,4.22
2023-01-30T11:10:53.328Z,4.28
2023-01-30T11:15:57.898Z,5.20
2023-01-30T11:21:05.166Z,5.85
2023-01-30T11:26:11.716Z,4.15
2023-01-30T11:31:19.790Z,4.97
2023-01-30T11:36:28.568Z,4.97
2023-01-30T11:41:31.872Z,3.60
2023-01-30T11:46:35.576Z,3.07
2023-01-30T11:51:40.327Z,3.97
2023-01-30T11:56:48.680Z,4.93
2023-01-30T12:01:51.704Z,4.20
2023-01-30T12:07:07.132Z,2.83
2023-01-30T12:12:28.314Z,2.90
2023-01-30T12:17:36.393Z,3.38
2023-01-30T12:22:44.098Z,3.42
2023-01-30T12:27:49.894Z,5.28
2023-01-30T12:32:53.569Z,5.18
2023-01-30T12:38:03.926Z,4.68
2023-01-30T12:43:15.739Z,3.45
2023-01-30T12:48:29.661Z,3.88
2023-01-30T12:53:36.406Z,3.80
2023-01-30T12:58:43.731Z,4.18
2023-01-30T13:03:51.625Z,3.95
2023-01-30T13:09:05.001Z,3.25
2023-01-30T13:14:10.533Z,3.38
2023-01-30T13:19:18.024Z,3.38
2023-01-30T13:24:26.249Z,2.97
2023-01-30T13:29:31.601Z,2.67
2023-01-30T13:34:36.167Z,3.55
2023-01-30T13:39:42.609Z,3.60
2023-01-30T13:44:46.686Z,3.28
2023-01-30T13:49:53.621Z,3.20
2023-01-30T13:55:02.680Z,2.83
2023-01-30T14:00:19.142Z,2.85
2023-01-30T14:05:54.327Z,2.85
2023-01-30T14:10:58.855Z,3.78
2023-01-30T14:16:02.604Z,3.10
2023-01-30T14:21:24.555Z,2.15
2023-01-30T14:26:54.657Z,2.53
2023-01-30T14:31:59.183Z,2.13
2023-01-30T14:37:01.918Z,2.38
2023-01-30T14:42:24.452Z,2.67
2023-01-30T14:47:34.436Z,2.80
2023-01-30T14:52:49.561Z,3.17
2023-01-30T14:57:54.946Z,2.65
2023-01-30T15:03:00.406Z,2.30
2023-01-30T15:08:13.938Z,3.30
2023-01-30T15:13:33.112Z,2.10
2023-01-30T15:18:57.744Z,3.15
2023-01-30T15:24:52.925Z,3.30
2023-01-30T15:30:18.779Z,3.80
2023-01-30T15:35:39.391Z,3.78
2023-01-30T15:41:01.674Z,3.40
2023-01-30T15:46:13.398Z,3.08
2023-01-30T15:51:38.505Z,3.88
2023-01-30T15:57:12.187Z,3.03
2023-01-30T16:02:26.699Z,3.65
2023-01-30T16:07:35.721Z,3.03
2023-01-30T16:12:47.761Z,3.92
2023-01-30T16:18:04.381Z,4.20
2023-01-30T16:23:21.893Z,2.92
2023-01-30T16:28:43.138Z,3.70
2023-01-30T16:34:01.581Z,3.53
2023-01-30T16:39:33.788Z,4.33
2023-01-30T16:44:53.622Z,2.60
2023-01-30T16:55:29.630Z,3.20
2023-01-30T17:00:39.690Z,3.30
2023-01-30T17:05:49.465Z,4.27
2023-01-30T17:11:06.660Z,5.30
2023-01-30T17:16:25.049Z,3.40
2023-01-30T17:21:31.923Z,3.80
2023-01-30T17:26:48.660Z,4.13
2023-01-30T17:31:56.970Z,4.10
2023-01-30T17:37:08.557Z,4.13
2023-01-30T17:42:14.899Z,4.63
2023-01-30T17:47:28.386Z,2.77
2023-01-30T17:52:41.023Z,4.60
2023-01-30T17:57:56.938Z,3.00
2023-01-30T18:03:27.646Z,4.57
2023-01-30T18:08:40.553Z,4.70
2023-01-30T18:13:52.465Z,3.83
2023-01-30T18:19:17.449Z,3.83
2023-01-30T18:24:37.831Z,3.63
2023-01-30T18:29:50.891Z,3.53
2023-01-30T18:35:03.899Z,2.83
2023-01-30T18:40:28.050Z,5.43
2023-01-30T18:45:35.015Z,6.27
2023-01-30T18:51:05.581Z,2.47
2023-01-30T19:01:45.909Z,2.30
2023-01-30T19:06:54.557Z,3.47
2023-01-30T19:12:19.819Z,3.87
2023-01-30T19:17:33.227Z,2.83
2023-01-30T19:22:44.307Z,3.60
2023-01-30T19:28:00.632Z,3.57
2023-01-30T19:33:04.997Z,3.33
2023-01-30T19:38:31.259Z,3.47
2023-01-30T19:43:39.898Z,3.33
2023-01-30T19:48:51.631Z,2.80
2023-01-30T19:53:59.801Z,3.53
2023-01-30T19:59:04.543Z,2.67
2023-01-30T20:04:08.922Z,3.50
2023-01-30T20:14:47.111Z,2.43
2023-01-30T20:20:00.818Z,3.90
2023-01-30T20:25:07.085Z,2.63
2023-01-30T20:30:24.033Z,2.70
2023-01-30T20:35:28.855Z,3.33
2023-01-30T20:40:33.376Z,3.33
2023-01-30T20:45:42.133Z,2.67
2023-01-30T20:50:48.455Z,3.17
2023-01-30T20:55:55.645Z,2.87
2023-01-30T21:01:11.015Z,1.83
2023-01-30T21:06:42.854Z,4.10
2023-01-30T21:11:48.128Z,3.50
2023-01-30T21:16:55.434Z,2.60
2023-01-30T21:22:07.449Z,2.67
2023-01-30T21:27:13.989Z,3.63
2023-01-30T21:32:23.521Z,2.67
2023-01-30T21:37:45.059Z,2.13
2023-01-30T21:43:20.380Z,2.80
2023-01-30T21:48:33.734Z,2.97
2023-01-30T21:53:38.877Z,2.63
2023-01-30T21:58:43.785Z,1.70
2023-01-30T22:03:51.138Z,3.67
2023-01-30T22:09:02.264Z,3.30
2023-01-30T22:14:09.941Z,3.33
2023-01-30T22:19:24.703Z,1.70
2023-01-30T22:24:38.573Z,2.17
2023-01-30T22:29:43.269Z,2.73
2023-01-30T22:34:51.152Z,2.80
2023-01-30T22:39:55.287Z,2.80
2023-01-30T22:45:00.215Z,2.15
2023-01-30T22:50:08.997Z,2.87
2023-01-30T22:55:12.873Z,2.77
2023-01-30T23:00:16.790Z,2.40
2023-01-30T23:05:31.716Z,2.53
2023-01-30T23:10:35.549Z,2.77
2023-01-30T23:15:45.963Z,2.03
2023-01-30T23:21:03.207Z,2.03
2023-01-30T23:26:15.960Z,2.07
2023-01-30T23:31:25.015Z,1.90
2023-01-30T23:36:30.637Z,2.37
2023-01-30T23:41:42.685Z,3.40
2023-01-30T23:46:46.903Z,2.90
2023-01-30T23:51:53.559Z,2.13
2023-01-30T23:57:08.199Z,3.23
